Aviation Digital Data Service (ADDS)

Output produced by METARs form (1541 UTC 23 January 2019)
found at http://www.aviationweather.gov/metar/data/
 
METAR text: YSCB 231530Z AUTO 00000KT 9999 // OVC022 18/16 Q1018 RF00.0/004.2
Conditions at: YSCB (CANBERRA (CIV/MI, AU) observed 1530 UTC 23 January 2019
Temperature: 18.0°C (64°F)
Dewpoint: 16.0°C (61°F) [RH = 88%]
Pressure (altimeter): 30.06 inches Hg (1018.0 mb)
Winds: calm
Visibility: 6 or more miles (10+ km)
Ceiling: 2200 feet AGL
Clouds: overcast cloud deck at 2200 feet AGL
Weather: no significant weather observed at this time

METAR text: YSCB 231506Z AUTO 11004KT 9999 // BKN022 17/16 Q1018 RF00/0/004/2
Conditions at: YSCB (CANBERRA (CIV/MI, AU) observed 1506 UTC 23 January 2019
Temperature: 17.0°C (63°F)
Dewpoint: 16.0°C (61°F) [RH = 94%]
Pressure (altimeter): 30.06 inches Hg (1018.0 mb)
Winds: from the ESE (110 degrees) at 5 MPH (4 knots; 2.1 m/s)
Visibility: 6 or more miles (10+ km)
Ceiling: 2200 feet AGL
Clouds: broken clouds at 2200 feet AGL
Weather: no significant weather observed at this time

METAR text: YSCB 231500Z AUTO 11004KT 9999 // BKN024 18/16 Q1018
Conditions at: YSCB (CANBERRA (CIV/MI, AU) observed 1500 UTC 23 January 2019
Temperature: 18.0°C (64°F)
Dewpoint: 16.0°C (61°F) [RH = 88%]
Pressure (altimeter): 30.06 inches Hg (1018.0 mb)
Winds: from the ESE (110 degrees) at 5 MPH (4 knots; 2.1 m/s)
Visibility: 6 or more miles (10+ km)
Ceiling: 2400 feet AGL
Clouds: broken clouds at 2400 feet AGL
Weather: no significant weather observed at this time

METAR text: YSCB 231430Z AUTO 11004KT 9999 // SCT024 17/15 Q1018 RF00.0/004.2
Conditions at: YSCB (CANBERRA (CIV/MI, AU) observed 1430 UTC 23 January 2019
Temperature: 17.0°C (63°F)
Dewpoint: 15.0°C (59°F) [RH = 88%]
Pressure (altimeter): 30.06 inches Hg (1018.0 mb)
Winds: from the ESE (110 degrees) at 5 MPH (4 knots; 2.1 m/s)
Visibility: 6 or more miles (10+ km)
Ceiling: at least 12,000 feet AGL
Clouds: scattered clouds at 2400 feet AGL
Weather: no significant weather observed at this time

METAR text: YSCB 231400Z AUTO 12004KT 9999 // NCD 18/16 Q1018
Conditions at: YSCB (CANBERRA (CIV/MI, AU) observed 1400 UTC 23 January 2019
Temperature: 18.0°C (64°F)
Dewpoint: 16.0°C (61°F) [RH = 88%]
Pressure (altimeter): 30.06 inches Hg (1018.0 mb)
Winds: from the ESE (120 degrees) at 5 MPH (4 knots; 2.1 m/s)
Visibility: 6 or more miles (10+ km)
Ceiling: at least 12,000 feet AGL
Clouds: sky clear below 12,000 feet AGL
Weather: no significant weather observed at this time

METAR text: YSCB 231330Z AUTO 10005KT 9999 // NCD 18/15 Q1018 RF00.0/004.2
Conditions at: YSCB (CANBERRA (CIV/MI, AU) observed 1330 UTC 23 January 2019
Temperature: 18.0°C (64°F)
Dewpoint: 15.0°C (59°F) [RH = 83%]
Pressure (altimeter): 30.06 inches Hg (1018.0 mb)
Winds: from the E (100 degrees) at 6 MPH (5 knots; 2.6 m/s)
Visibility: 6 or more miles (10+ km)
Ceiling: at least 12,000 feet AGL
Clouds: sky clear below 12,000 feet AGL
Weather: no significant weather observed at this time

METAR text: YSCB 231309Z AUTO 06004KT 9999 // SCT020 18/16 Q1018 RF00/0/004/2
Conditions at: YSCB (CANBERRA (CIV/MI, AU) observed 1309 UTC 23 January 2019
Temperature: 18.0°C (64°F)
Dewpoint: 16.0°C (61°F) [RH = 88%]
Pressure (altimeter): 30.06 inches Hg (1018.0 mb)
Winds: from the ENE (60 degrees) at 5 MPH (4 knots; 2.1 m/s)
Visibility: 6 or more miles (10+ km)
Ceiling: at least 12,000 feet AGL
Clouds: scattered clouds at 2000 feet AGL
Weather: no significant weather observed at this time

METAR text: YSCB 231300Z AUTO 06004KT 9999 // SCT020 18/16 Q1018
Conditions at: YSCB (CANBERRA (CIV/MI, AU) observed 1300 UTC 23 January 2019
Temperature: 18.0°C (64°F)
Dewpoint: 16.0°C (61°F) [RH = 88%]
Pressure (altimeter): 30.06 inches Hg (1018.0 mb)
Winds: from the ENE (60 degrees) at 5 MPH (4 knots; 2.1 m/s)
Visibility: 6 or more miles (10+ km)
Ceiling: at least 12,000 feet AGL
Clouds: scattered clouds at 2000 feet AGL
Weather: no significant weather observed at this time

METAR text: YSCB 231230Z AUTO 05006KT 9999 // OVC020 19/16 Q1019 RF00.0/004.2
Conditions at: YSCB (CANBERRA (CIV/MI, AU) observed 1230 UTC 23 January 2019
Temperature: 19.0°C (66°F)
Dewpoint: 16.0°C (61°F) [RH = 83%]
Pressure (altimeter): 30.09 inches Hg (1019.0 mb)
Winds: from the NE (50 degrees) at 7 MPH (6 knots; 3.1 m/s)
Visibility: 6 or more miles (10+ km)
Ceiling: 2000 feet AGL
Clouds: overcast cloud deck at 2000 feet AGL
Weather: no significant weather observed at this time

METAR text: YSCB 231200Z AUTO 08005KT 9999 // OVC018 19/16 Q1019 RF00.0/004.2
Conditions at: YSCB (CANBERRA (CIV/MI, AU) observed 1200 UTC 23 January 2019
Temperature: 19.0°C (66°F)
Dewpoint: 16.0°C (61°F) [RH = 83%]
Pressure (altimeter): 30.09 inches Hg (1019.0 mb)
Winds: from the E (80 degrees) at 6 MPH (5 knots; 2.6 m/s)
Visibility: 6 or more miles (10+ km)
Ceiling: 1800 feet AGL
Clouds: overcast cloud deck at 1800 feet AGL
Weather: no significant weather observed at this time

METAR text: YSCB 231130Z AUTO 07006KT 9999 // BKN018 19/16 Q1018 RF00.0/004.2
Conditions at: YSCB (CANBERRA (CIV/MI, AU) observed 1130 UTC 23 January 2019
Temperature: 19.0°C (66°F)
Dewpoint: 16.0°C (61°F) [RH = 83%]
Pressure (altimeter): 30.06 inches Hg (1018.0 mb)
Winds: from the ENE (70 degrees) at 7 MPH (6 knots; 3.1 m/s)
Visibility: 6 or more miles (10+ km)
Ceiling: 1800 feet AGL
Clouds: broken clouds at 1800 feet AGL
Weather: no significant weather observed at this time

METAR text: YSCB 231100Z AUTO 06008KT 9999 // BKN016 19/16 Q1018
Conditions at: YSCB (CANBERRA (CIV/MI, AU) observed 1100 UTC 23 January 2019
Temperature: 19.0°C (66°F)
Dewpoint: 16.0°C (61°F) [RH = 83%]
Pressure (altimeter): 30.06 inches Hg (1018.0 mb)
Winds: from the ENE (60 degrees) at 9 MPH (8 knots; 4.1 m/s)
Visibility: 6 or more miles (10+ km)
Ceiling: 1600 feet AGL
Clouds: broken clouds at 1600 feet AGL
Weather: no significant weather observed at this time

METAR text: YSCB 231038Z AUTO 07008KT 9999 // BKN016 OVC120 19/16 Q1018
Conditions at: YSCB (CANBERRA (CIV/MI, AU) observed 1038 UTC 23 January 2019
Temperature: 19.0°C (66°F)
Dewpoint: 16.0°C (61°F) [RH = 83%]
Pressure (altimeter): 30.06 inches Hg (1018.0 mb)
Winds: from the ENE (70 degrees) at 9 MPH (8 knots; 4.1 m/s)
Visibility: 6 or more miles (10+ km)
Ceiling: 1600 feet AGL
Clouds: broken clouds at 1600 feet AGL
overcast cloud deck at 12000 feet AGL
Weather: no significant weather observed at this time

METAR text: YSCB 231000Z AUTO 08010KT 9999 // BKN120 19/16 Q1017
Conditions at: YSCB (CANBERRA (CIV/MI, AU) observed 1000 UTC 23 January 2019
Temperature: 19.0°C (66°F)
Dewpoint: 16.0°C (61°F) [RH = 83%]
Pressure (altimeter): 30.03 inches Hg (1017.0 mb)
Winds: from the E (80 degrees) at 12 MPH (10 knots; 5.1 m/s)
Visibility: 6 or more miles (10+ km)
Ceiling: 12000 feet AGL
Clouds: broken clouds at 12000 feet AGL
Weather: no significant weather observed at this time

METAR text: YSCB 230930Z AUTO 04007KT 9999 // SCT120 20/17 Q1017 RF00.0/004.2
Conditions at: YSCB (CANBERRA (CIV/MI, AU) observed 0930 UTC 23 January 2019
Temperature: 20.0°C (68°F)
Dewpoint: 17.0°C (63°F) [RH = 83%]
Pressure (altimeter): 30.03 inches Hg (1017.0 mb)
Winds: from the NE (40 degrees) at 8 MPH (7 knots; 3.6 m/s)
Visibility: 6 or more miles (10+ km)
Ceiling: at least 12,000 feet AGL
Clouds: scattered clouds at 12000 feet AGL
Weather: no significant weather observed at this time

METAR text: YSCB 230900Z AUTO 08009KT 9999 // SCT110 20/16 Q1016
Conditions at: YSCB (CANBERRA (CIV/MI, AU) observed 0900 UTC 23 January 2019
Temperature: 20.0°C (68°F)
Dewpoint: 16.0°C (61°F) [RH = 78%]
Pressure (altimeter): 30.00 inches Hg (1016.0 mb)
Winds: from the E (80 degrees) at 10 MPH (9 knots; 4.6 m/s)
Visibility: 6 or more miles (10+ km)
Ceiling: at least 12,000 feet AGL
Clouds: scattered clouds at 11000 feet AGL
Weather: no significant weather observed at this time

METAR text: YSCB 230830Z AUTO 09005KT 050V110 9999 // BKN100 21/17 Q1016 RESHRA RMK RF00.0/004.2 WX2:DL-W/DL-NW DISTANT LIGHTNING TO W, NW TEMPO 0830/0900 VRB20G35KT 2000 TSRA BKN020 SCT050CB RMK USE TAF FOR ARRIVALS AFTER 0900Z
Conditions at: YSCB (CANBERRA (CIV/MI, AU) observed 0830 UTC 23 January 2019
Temperature: 21.0°C (70°F)
Dewpoint: 17.0°C (63°F) [RH = 78%]
Pressure (altimeter): 30.00 inches Hg (1016.0 mb)
Winds: from the E (90 degrees) at 6 MPH (5 knots; 2.6 m/s)
Visibility: 6 or more miles (10+ km)
Ceiling: 10000 feet AGL
Clouds: broken clouds at 10000 feet AGL
Weather: no significant weather observed at this time

METAR text: YSCB 230800Z AUTO 09011KT 9999 VCTS +SHRA SCT018 SCT048 BKN100 21/16 Q1015 RETS TEMPO 0800/0900 VRB20G35KT 2000 TSRA BKN020 SCT050CB
Conditions at: YSCB (CANBERRA (CIV/MI, AU) observed 0800 UTC 23 January 2019
Temperature: 21.0°C (70°F)
Dewpoint: 16.0°C (61°F) [RH = 73%]
Pressure (altimeter): 29.97 inches Hg (1015.0 mb)
Winds: from the E (90 degrees) at 13 MPH (11 knots; 5.7 m/s)
Visibility: 6 or more miles (10+ km)
Ceiling: 10000 feet AGL
Clouds: scattered clouds at 1800 feet AGL
scattered clouds at 4800 feet AGL
broken clouds at 10000 feet AGL
Weather: VCTS +SHRA  (thunderstorm in vicinity, heavy rain showers)

METAR text: YSCB 230747Z AUTO 07009KT 9999 VCTS -SHRA SCT045 SCT098 23/15 Q1016 RETS TEMPO 0747/0900 VRB20G35KT 2000 TSRA BKN020 SCT050CB RMK USE TAF FOR ARRIVALS AFTER 0900Z
Conditions at: YSCB (CANBERRA (CIV/MI, AU) observed 0747 UTC 23 January 2019
Temperature: 23.0°C (73°F)
Dewpoint: 15.0°C (59°F) [RH = 61%]
Pressure (altimeter): 30.00 inches Hg (1016.0 mb)
Winds: from the ENE (70 degrees) at 10 MPH (9 knots; 4.6 m/s)
Visibility: 6 or more miles (10+ km)
Ceiling: at least 12,000 feet AGL
Clouds: scattered clouds at 4500 feet AGL
scattered clouds at 9800 feet AGL
Weather: VCTS -SHRA  (thunderstorm in vicinity, light rain showers)

METAR text: YSCB 230732Z AUTO 08014KT 9999 TS SCT098 24/15 Q1015 RF00/0/003/0 WX2/TS FM0830 10014KT 9999 -SHRA SCT060 TEMPO 0732/0900 VRB20G35KT 2000 TSRA BKN020 SCT050CB RMK USE TAF FOR ARRIVALS AFTER 0900Z
Conditions at: YSCB (CANBERRA (CIV/MI, AU) observed 0732 UTC 23 January 2019
Temperature: 24.0°C (75°F)
Dewpoint: 15.0°C (59°F) [RH = 57%]
Pressure (altimeter): 29.97 inches Hg (1015.0 mb)
Winds: from the E (80 degrees) at 16 MPH (14 knots; 7.2 m/s)
Visibility: 6 or more miles (10+ km)
Ceiling: at least 12,000 feet AGL
Clouds: scattered clouds at 9800 feet AGL
Weather: TS TS  (thunderstorm, thunderstorm)

METAR text: YSCB 230700Z AUTO 07016KT 9999 // SCT110 25/15 Q1015 RMK RF00.0/003.0 TEMPO 0800/0900 VRB20G35KT 2000 TSRA BKN020 SCT050CB RMK USE TAF FOR ARRIVALS AFTER 0900Z
Conditions at: YSCB (CANBERRA (CIV/MI, AU) observed 0700 UTC 23 January 2019
Temperature: 25.0°C (77°F)
Dewpoint: 15.0°C (59°F) [RH = 54%]
Pressure (altimeter): 29.97 inches Hg (1015.0 mb)
Winds: from the ENE (70 degrees) at 18 MPH (16 knots; 8.2 m/s)
Visibility: 6 or more miles (10+ km)
Ceiling: at least 12,000 feet AGL
Clouds: scattered clouds at 11000 feet AGL
Weather: no significant weather observed at this time

METAR text: YSCB 230630Z AUTO 14013KT 9999 // NCD 27/16 Q1014 RMK RF00.0/003.0 TEMPO 0700/0800 VRB20G35KT 2000 TSRA BKN020 SCT050CB
Conditions at: YSCB (CANBERRA (CIV/MI, AU) observed 0630 UTC 23 January 2019
Temperature: 27.0°C (81°F)
Dewpoint: 16.0°C (61°F) [RH = 51%]
Pressure (altimeter): 29.94 inches Hg (1014.0 mb)
Winds: from the SE (140 degrees) at 15 MPH (13 knots; 6.7 m/s)
Visibility: 6 or more miles (10+ km)
Ceiling: at least 12,000 feet AGL
Clouds: sky clear below 12,000 feet AGL
Weather: no significant weather observed at this time

METAR text: YSCB 230600Z AUTO 12016KT 9999 // NCD 28/17 Q1014 TEMPO 0700/0800 VRB20G35KT 2000 TSRA BKN020 SCT050CB
Conditions at: YSCB (CANBERRA (CIV/MI, AU) observed 0600 UTC 23 January 2019
Temperature: 28.0°C (82°F)
Dewpoint: 17.0°C (63°F) [RH = 51%]
Pressure (altimeter): 29.94 inches Hg (1014.0 mb)
Winds: from the ESE (120 degrees) at 18 MPH (16 knots; 8.2 m/s)
Visibility: 6 or more miles (10+ km)
Ceiling: at least 12,000 feet AGL
Clouds: sky clear below 12,000 feet AGL
Weather: no significant weather observed at this time

METAR text: YSCB 230530Z AUTO 13014KT 9999 // NCD 28/17 Q1013 RMK RF00.0/003.0 TEMPO 0630/0730 VRB20G35KT 2000 TSRA BKN020 SCT050CB
Conditions at: YSCB (CANBERRA (CIV/MI, AU) observed 0530 UTC 23 January 2019
Temperature: 28.0°C (82°F)
Dewpoint: 17.0°C (63°F) [RH = 51%]
Pressure (altimeter): 29.91 inches Hg (1013.0 mb)
Winds: from the SE (130 degrees) at 16 MPH (14 knots; 7.2 m/s)
Visibility: 6 or more miles (10+ km)
Ceiling: at least 12,000 feet AGL
Clouds: sky clear below 12,000 feet AGL
Weather: no significant weather observed at this time

METAR text: YSCB 230500Z AUTO 11007KT 9999 // NCD 29/19 Q1014 TEMPO 0530/0800 VRB20G35KT 2000 TSRA BKN020 SCT050CB
Conditions at: YSCB (CANBERRA (CIV/MI, AU) observed 0500 UTC 23 January 2019
Temperature: 29.0°C (84°F)
Dewpoint: 19.0°C (66°F) [RH = 55%]
Pressure (altimeter): 29.94 inches Hg (1014.0 mb)
Winds: from the ESE (110 degrees) at 8 MPH (7 knots; 3.6 m/s)
Visibility: 6 or more miles (10+ km)
Ceiling: at least 12,000 feet AGL
Clouds: sky clear below 12,000 feet AGL
Weather: no significant weather observed at this time

METAR text: YSCB 230430Z AUTO 14007KT 9999 // SCT013 SCT033 25/21 Q1014 RESHRA RMK RF00.0/003.0 WX2:DL-N/DL-S/DL-NW DISTANT LIGHTNING TO N, S, NW TEMPO 0430/0730 VRB20G35KT 2000 TSRA BKN020 SCT050CB
Conditions at: YSCB (CANBERRA (CIV/MI, AU) observed 0430 UTC 23 January 2019
Temperature: 25.0°C (77°F)
Dewpoint: 21.0°C (70°F) [RH = 79%]
Pressure (altimeter): 29.94 inches Hg (1014.0 mb)
Winds: from the SE (140 degrees) at 8 MPH (7 knots; 3.6 m/s)
Visibility: 6 or more miles (10+ km)
Ceiling: at least 12,000 feet AGL
Clouds: scattered clouds at 1300 feet AGL
scattered clouds at 3300 feet AGL
Weather: no significant weather observed at this time

METAR text: YSCB 230424Z AUTO 11013KT 9999 VCTS -SHRA SCT010 SCT020 BKN033 25/20 Q1013 RETS RESHRA TEMPO 0424/0724 VRB20G35KT 2000 TSRA BKN020 SCT050CB
Conditions at: YSCB (CANBERRA (CIV/MI, AU) observed 0424 UTC 23 January 2019
Temperature: 25.0°C (77°F)
Dewpoint: 20.0°C (68°F) [RH = 74%]
Pressure (altimeter): 29.91 inches Hg (1013.0 mb)
Winds: from the ESE (110 degrees) at 15 MPH (13 knots; 6.7 m/s)
Visibility: 6 or more miles (10+ km)
Ceiling: 3300 feet AGL
Clouds: scattered clouds at 1000 feet AGL
scattered clouds at 2000 feet AGL
broken clouds at 3300 feet AGL
Weather: VCTS -SHRA SHRA  (thunderstorm in vicinity, light rain showers, rain showers)

METAR text: YSCB 230414Z AUTO 10014KT 9999 VCTS SHRA SCT010 SCT021 BKN031 24/21 Q1013 RETS FM0430 10014KT 9999 -SHRA SCT060 TEMPO 0414/0714 VRB20G35KT 2000 TSRA BKN020 SCT050CB
Conditions at: YSCB (CANBERRA (CIV/MI, AU) observed 0414 UTC 23 January 2019
Temperature: 24.0°C (75°F)
Dewpoint: 21.0°C (70°F) [RH = 83%]
Pressure (altimeter): 29.91 inches Hg (1013.0 mb)
Winds: from the E (100 degrees) at 16 MPH (14 knots; 7.2 m/s)
Visibility: 6 or more miles (10+ km)
Ceiling: 3100 feet AGL
Clouds: scattered clouds at 1000 feet AGL
scattered clouds at 2100 feet AGL
broken clouds at 3100 feet AGL
Weather: VCTS SHRA  (thunderstorm in vicinity, rain showers)

METAR text: YSCB 230405Z AUTO 09012KT 7000 VCTS +SHRA BKN013 BKN041 OVC056 24/20 Q1013 RETS FM0420 SPECI 10014KT 9999 -SHRA SCT060 TEMPO 0405/0705 VRB20G35KT 2000 TSRA BKN020 SCT050CB
Conditions at: YSCB (CANBERRA (CIV/MI, AU) observed 0405 UTC 23 January 2019
Temperature: 24.0°C (75°F)
Dewpoint: 20.0°C (68°F) [RH = 78%]
Pressure (altimeter): 29.91 inches Hg (1013.0 mb)
Winds: from the E (90 degrees) at 14 MPH (12 knots; 6.2 m/s)
Visibility: 4 miles ( 7 km)
Ceiling: 1300 feet AGL
Clouds: broken clouds at 1300 feet AGL
broken clouds at 4100 feet AGL
overcast cloud deck at 5600 feet AGL
Weather: VCTS +SHRA  (thunderstorm in vicinity, heavy rain showers)

METAR text: YSCB 230404Z AUTO 09012KT 080V200 6000 +TSRA SCT011 BKN023 BKN052 24/19 Q1013 FM0420 10014KT 9999 -SHRA SCT060 TEMPO 0404/0704 VRB20G35KT 2000 TSRA BKN020 SCT050CB
Conditions at: YSCB (CANBERRA (CIV/MI, AU) observed 0404 UTC 23 January 2019
Temperature: 24.0°C (75°F)
Dewpoint: 19.0°C (66°F) [RH = 74%]
Pressure (altimeter): 29.91 inches Hg (1013.0 mb)
Winds: from the E (90 degrees) at 14 MPH (12 knots; 6.2 m/s)
Visibility: 4 miles ( 6 km)
Ceiling: 2300 feet AGL
Clouds: scattered clouds at 1100 feet AGL
broken clouds at 2300 feet AGL
broken clouds at 5200 feet AGL
Weather: +TSRA  (heavy rain associated with thunderstorm(s))

METAR text: YSCB 230400Z AUTO 09011KT 080V200 6000 +TSRA SCT017 SCT036 BKN055 24/19 Q1013 FM0420 10014KT 9999 -SHRA SCT050 TEMPO 0400/0700 VRB20G35KT 2000 TSRA BKN020 SCT050CB
Conditions at: YSCB (CANBERRA (CIV/MI, AU) observed 0400 UTC 23 January 2019
Temperature: 24.0°C (75°F)
Dewpoint: 19.0°C (66°F) [RH = 74%]
Pressure (altimeter): 29.91 inches Hg (1013.0 mb)
Winds: from the E (90 degrees) at 13 MPH (11 knots; 5.7 m/s)
Visibility: 4 miles ( 6 km)
Ceiling: 5500 feet AGL
Clouds: scattered clouds at 1700 feet AGL
scattered clouds at 3600 feet AGL
broken clouds at 5500 feet AGL
Weather: +TSRA  (heavy rain associated with thunderstorm(s))

METAR text: YSCB 230330Z AUTO 11017KT 9999 -TSRA SCT031 SCT063 BKN077 27/19 Q1012 RMK RF00.0/000.0 WX2:TS FM0415 10014KT 9999 -SHRA SCT050 TEMPO 0330/0630 VRB20G35KT 2000 TSRA BKN020 SCT050CB
Conditions at: YSCB (CANBERRA (CIV/MI, AU) observed 0330 UTC 23 January 2019
Temperature: 27.0°C (81°F)
Dewpoint: 19.0°C (66°F) [RH = 62%]
Pressure (altimeter): 29.88 inches Hg (1012.0 mb)
Winds: from the ESE (110 degrees) at 20 MPH (17 knots; 8.7 m/s)
Visibility: 6 or more miles (10+ km)
Ceiling: 7700 feet AGL
Clouds: scattered clouds at 3100 feet AGL
scattered clouds at 6300 feet AGL
broken clouds at 7700 feet AGL
Weather: -TSRA  (light rain associated with thunderstorm(s))

METAR text: YSCB 230326Z AUTO 11019KT 9999 -TSRA SCT033 SCT060 BKN077 27/19 Q1012 FM0415 10014KT 9999 -SHRA SCT050 TEMPO 0326/0626 VRB20G35KT 2000 TSRA BKN020 SCT050CB
Conditions at: YSCB (CANBERRA (CIV/MI, AU) observed 0326 UTC 23 January 2019
Temperature: 27.0°C (81°F)
Dewpoint: 19.0°C (66°F) [RH = 62%]
Pressure (altimeter): 29.88 inches Hg (1012.0 mb)
Winds: from the ESE (110 degrees) at 22 MPH (19 knots; 9.8 m/s)
Visibility: 6 or more miles (10+ km)
Ceiling: 7700 feet AGL
Clouds: scattered clouds at 3300 feet AGL
scattered clouds at 6000 feet AGL
broken clouds at 7700 feet AGL
Weather: -TSRA  (light rain associated with thunderstorm(s))

METAR text: YSCB 230300Z AUTO 09017KT 9999 TS SCT085 BKN120 32/18 Q1012 RMK RF00.0/000.0 WX2:TS FM0345 10014KT 9999 -SHRA SCT050 TEMPO 0300/0600 VRB20G35KT 2000 TSRA BKN020 SCT050CB
Conditions at: YSCB (CANBERRA (CIV/MI, AU) observed 0300 UTC 23 January 2019
Temperature: 32.0°C (90°F)
Dewpoint: 18.0°C (64°F) [RH = 43%]
Pressure (altimeter): 29.88 inches Hg (1012.0 mb)
Winds: from the E (90 degrees) at 20 MPH (17 knots; 8.7 m/s)
Visibility: 6 or more miles (10+ km)
Ceiling: 12000 feet AGL
Clouds: scattered clouds at 8500 feet AGL
broken clouds at 12000 feet AGL
Weather: TS  (thunderstorm)

METAR text: YSCB 230256Z AUTO 09016KT 9999 TS SCT085 SCT105 BKN120 33/17 Q1012 FM0345 10014KT 9999 -SHRA SCT050 TEMPO 0256/0556 VRB20G35KT 2000 TSRA BKN020 SCT050CB
Conditions at: YSCB (CANBERRA (CIV/MI, AU) observed 0256 UTC 23 January 2019
Temperature: 33.0°C (91°F)
Dewpoint: 17.0°C (63°F) [RH = 39%]
Pressure (altimeter): 29.88 inches Hg (1012.0 mb)
Winds: from the E (90 degrees) at 18 MPH (16 knots; 8.2 m/s)
Visibility: 6 or more miles (10+ km)
Ceiling: 12000 feet AGL
Clouds: scattered clouds at 8500 feet AGL
scattered clouds at 10500 feet AGL
broken clouds at 12000 feet AGL
Weather: TS  (thunderstorm)

METAR text: YSCB 230230Z AUTO 34008KT 280V030 9999 // NCD 34/13 Q1012 RMK RF00.0/000.0 WX2:DL-SE/DL-S/DL-SW DISTANT LIGHTNING TO SE, S, SW TEMPO 0300/0530 VRB20G35KT 2000 TSRA BKN020 SCT050CB
Conditions at: YSCB (CANBERRA (CIV/MI, AU) observed 0230 UTC 23 January 2019
Temperature: 34.0°C (93°F)
Dewpoint: 13.0°C (55°F) [RH = 28%]
Pressure (altimeter): 29.88 inches Hg (1012.0 mb)
Winds: from the NNW (340 degrees) at 9 MPH (8 knots; 4.1 m/s)
Visibility: 6 or more miles (10+ km)
Ceiling: at least 12,000 feet AGL
Clouds: sky clear below 12,000 feet AGL
Weather: no significant weather observed at this time

METAR text: YSCB 230200Z AUTO VRB03KT 9999 // NCD 34/14 Q1013 TEMPO 0245/0500 VRB20G35KT 2000 TSRA BKN020 SCT050CB
Conditions at: YSCB (CANBERRA (CIV/MI, AU) observed 0200 UTC 23 January 2019
Temperature: 34.0°C (93°F)
Dewpoint: 14.0°C (57°F) [RH = 30%]
Pressure (altimeter): 29.91 inches Hg (1013.0 mb)
Winds: variable direction winds at 3 MPH (3 knots; 1.5 m/s)
Visibility: 6 or more miles (10+ km)
Ceiling: at least 12,000 feet AGL
Clouds: sky clear below 12,000 feet AGL
Weather: no significant weather observed at this time

METAR text: YSCB 230130Z AUTO 32003KT 9999 // NCD 33/14 Q1013 RMK RF00.0/000.0 WX2:DL-S DISTANT LIGHTNING TO S TEMPO 0300/0430 VRB20G35KT 2000 TSRA BKN020 SCT050CB
Conditions at: YSCB (CANBERRA (CIV/MI, AU) observed 0130 UTC 23 January 2019
Temperature: 33.0°C (91°F)
Dewpoint: 14.0°C (57°F) [RH = 32%]
Pressure (altimeter): 29.91 inches Hg (1013.0 mb)
Winds: from the NW (320 degrees) at 3 MPH (3 knots; 1.5 m/s)
Visibility: 6 or more miles (10+ km)
Ceiling: at least 12,000 feet AGL
Clouds: sky clear below 12,000 feet AGL
Weather: no significant weather observed at this time

METAR text: YSCB 230100Z AUTO 17005KT 9999 // NCD 33/14 Q1014 RMK RF00.0/000.0 NOSIG
Conditions at: YSCB (CANBERRA (CIV/MI, AU) observed 0100 UTC 23 January 2019
Temperature: 33.0°C (91°F)
Dewpoint: 14.0°C (57°F) [RH = 32%]
Pressure (altimeter): 29.94 inches Hg (1014.0 mb)
Winds: from the S (170 degrees) at 6 MPH (5 knots; 2.6 m/s)
Visibility: 6 or more miles (10+ km)
Ceiling: at least 12,000 feet AGL
Clouds: sky clear below 12,000 feet AGL
Weather: no significant weather observed at this time

METAR text: YSCB 230030Z AUTO 36006KT 300V060 9999 // NCD 32/15 Q1014 RMK RF00.0/000.0 NOSIG
Conditions at: YSCB (CANBERRA (CIV/MI, AU) observed 0030 UTC 23 January 2019
Temperature: 32.0°C (90°F)
Dewpoint: 15.0°C (59°F) [RH = 36%]
Pressure (altimeter): 29.94 inches Hg (1014.0 mb)
Winds: from the N (360 degrees) at 7 MPH (6 knots; 3.1 m/s)
Visibility: 6 or more miles (10+ km)
Ceiling: at least 12,000 feet AGL
Clouds: sky clear below 12,000 feet AGL
Weather: no significant weather observed at this time

METAR text: YSCB 230000Z AUTO 32006KT 280V350 9999 // NCD 31/16 Q1014 NOSIG
Conditions at: YSCB (CANBERRA (CIV/MI, AU) observed 0000 UTC 23 January 2019
Temperature: 31.0°C (88°F)
Dewpoint: 16.0°C (61°F) [RH = 40%]
Pressure (altimeter): 29.94 inches Hg (1014.0 mb)
Winds: from the NW (320 degrees) at 7 MPH (6 knots; 3.1 m/s)
Visibility: 6 or more miles (10+ km)
Ceiling: at least 12,000 feet AGL
Clouds: sky clear below 12,000 feet AGL
Weather: no significant weather observed at this time

METAR text: YSCB 222330Z AUTO 07002KT 9999 // NCD 30/17 Q1014 RMK RF00.0/000.0 NOSIG
Conditions at: YSCB (CANBERRA (CIV/MI, AU) observed 2330 UTC 22 January 2019
Temperature: 30.0°C (86°F)
Dewpoint: 17.0°C (63°F) [RH = 46%]
Pressure (altimeter): 29.94 inches Hg (1014.0 mb)
Winds: from the ENE (70 degrees) at 2 MPH (2 knots; 1.0 m/s)
Visibility: 6 or more miles (10+ km)
Ceiling: at least 12,000 feet AGL
Clouds: sky clear below 12,000 feet AGL
Weather: no significant weather observed at this time

METAR text: YSCB 222300Z AUTO 29003KT 9999 // NCD 28/17 Q1014 NOSIG
Conditions at: YSCB (CANBERRA (CIV/MI, AU) observed 2300 UTC 22 January 2019
Temperature: 28.0°C (82°F)
Dewpoint: 17.0°C (63°F) [RH = 51%]
Pressure (altimeter): 29.94 inches Hg (1014.0 mb)
Winds: from the WNW (290 degrees) at 3 MPH (3 knots; 1.5 m/s)
Visibility: 6 or more miles (10+ km)
Ceiling: at least 12,000 feet AGL
Clouds: sky clear below 12,000 feet AGL
Weather: no significant weather observed at this time

METAR text: YSCB 222230Z AUTO 22003KT 9999 // NCD 27/18 Q1014 RMK RF00.0/000.0 NOSIG
Conditions at: YSCB (CANBERRA (CIV/MI, AU) observed 2230 UTC 22 January 2019
Temperature: 27.0°C (81°F)
Dewpoint: 18.0°C (64°F) [RH = 58%]
Pressure (altimeter): 29.94 inches Hg (1014.0 mb)
Winds: from the SW (220 degrees) at 3 MPH (3 knots; 1.5 m/s)
Visibility: 6 or more miles (10+ km)
Ceiling: at least 12,000 feet AGL
Clouds: sky clear below 12,000 feet AGL
Weather: no significant weather observed at this time

METAR text: YSCB 222200Z AUTO 32003KT 9999 // NCD 26/18 Q1014
Conditions at: YSCB (CANBERRA (CIV/MI, AU) observed 2200 UTC 22 January 2019
Temperature: 26.0°C (79°F)
Dewpoint: 18.0°C (64°F) [RH = 61%]
Pressure (altimeter): 29.94 inches Hg (1014.0 mb)
Winds: from the NW (320 degrees) at 3 MPH (3 knots; 1.5 m/s)
Visibility: 6 or more miles (10+ km)
Ceiling: at least 12,000 feet AGL
Clouds: sky clear below 12,000 feet AGL
Weather: no significant weather observed at this time

METAR text: YSCB 222130Z AUTO 34002KT 9999 // NCD 25/17 Q1015 RF00.0/002.0
Conditions at: YSCB (CANBERRA (CIV/MI, AU) observed 2130 UTC 22 January 2019
Temperature: 25.0°C (77°F)
Dewpoint: 17.0°C (63°F) [RH = 61%]
Pressure (altimeter): 29.97 inches Hg (1015.0 mb)
Winds: from the NNW (340 degrees) at 2 MPH (2 knots; 1.0 m/s)
Visibility: 6 or more miles (10+ km)
Ceiling: at least 12,000 feet AGL
Clouds: sky clear below 12,000 feet AGL
Weather: no significant weather observed at this time

METAR text: YSCB 222100Z AUTO 00000KT 9999 // NCD 24/17 Q1014 RF00.0/002.0
Conditions at: YSCB (CANBERRA (CIV/MI, AU) observed 2100 UTC 22 January 2019
Temperature: 24.0°C (75°F)
Dewpoint: 17.0°C (63°F) [RH = 65%]
Pressure (altimeter): 29.94 inches Hg (1014.0 mb)
Winds: calm
Visibility: 6 or more miles (10+ km)
Ceiling: at least 12,000 feet AGL
Clouds: sky clear below 12,000 feet AGL
Weather: no significant weather observed at this time

METAR text: YSCB 222030Z AUTO 00000KT 9999 // NCD 22/18 Q1014 RF00.0/002.0
Conditions at: YSCB (CANBERRA (CIV/MI, AU) observed 2030 UTC 22 January 2019
Temperature: 22.0°C (72°F)
Dewpoint: 18.0°C (64°F) [RH = 78%]
Pressure (altimeter): 29.94 inches Hg (1014.0 mb)
Winds: calm
Visibility: 6 or more miles (10+ km)
Ceiling: at least 12,000 feet AGL
Clouds: sky clear below 12,000 feet AGL
Weather: no significant weather observed at this time

METAR text: YSCB 222000Z AUTO 12004KT 9999 // NCD 21/18 Q1014 RF00.0/002.0
Conditions at: YSCB (CANBERRA (CIV/MI, AU) observed 2000 UTC 22 January 2019
Temperature: 21.0°C (70°F)
Dewpoint: 18.0°C (64°F) [RH = 83%]
Pressure (altimeter): 29.94 inches Hg (1014.0 mb)
Winds: from the ESE (120 degrees) at 5 MPH (4 knots; 2.1 m/s)
Visibility: 6 or more miles (10+ km)
Ceiling: at least 12,000 feet AGL
Clouds: sky clear below 12,000 feet AGL
Weather: no significant weather observed at this time

METAR text: YSCB 221930Z AUTO 35002KT 9999 // NCD 20/18 Q1014 RF00.0/002.0
Conditions at: YSCB (CANBERRA (CIV/MI, AU) observed 1930 UTC 22 January 2019
Temperature: 20.0°C (68°F)
Dewpoint: 18.0°C (64°F) [RH = 88%]
Pressure (altimeter): 29.94 inches Hg (1014.0 mb)
Winds: from the N (350 degrees) at 2 MPH (2 knots; 1.0 m/s)
Visibility: 6 or more miles (10+ km)
Ceiling: at least 12,000 feet AGL
Clouds: sky clear below 12,000 feet AGL
Weather: no significant weather observed at this time

METAR text: YSCB 221900Z AUTO 35002KT 9999 // NCD 20/18 Q1013 RF00.0/002.0
Conditions at: YSCB (CANBERRA (CIV/MI, AU) observed 1900 UTC 22 January 2019
Temperature: 20.0°C (68°F)
Dewpoint: 18.0°C (64°F) [RH = 88%]
Pressure (altimeter): 29.91 inches Hg (1013.0 mb)
Winds: from the N (350 degrees) at 2 MPH (2 knots; 1.0 m/s)
Visibility: 6 or more miles (10+ km)
Ceiling: at least 12,000 feet AGL
Clouds: sky clear below 12,000 feet AGL
Weather: no significant weather observed at this time

METAR text: YSCB 221830Z AUTO 08001KT 9999 // NCD 21/18 Q1013 RF00.0/002.0
Conditions at: YSCB (CANBERRA (CIV/MI, AU) observed 1830 UTC 22 January 2019
Temperature: 21.0°C (70°F)
Dewpoint: 18.0°C (64°F) [RH = 83%]
Pressure (altimeter): 29.91 inches Hg (1013.0 mb)
Winds: from the E (80 degrees) at 1 MPH (1 knots; 0.5 m/s)
Visibility: 6 or more miles (10+ km)
Ceiling: at least 12,000 feet AGL
Clouds: sky clear below 12,000 feet AGL
Weather: no significant weather observed at this time

METAR text: YSCB 221800Z AUTO 11005KT 9999 // NCD 21/18 Q1013 RF00.0/002.0
Conditions at: YSCB (CANBERRA (CIV/MI, AU) observed 1800 UTC 22 January 2019
Temperature: 21.0°C (70°F)
Dewpoint: 18.0°C (64°F) [RH = 83%]
Pressure (altimeter): 29.91 inches Hg (1013.0 mb)
Winds: from the ESE (110 degrees) at 6 MPH (5 knots; 2.6 m/s)
Visibility: 6 or more miles (10+ km)
Ceiling: at least 12,000 feet AGL
Clouds: sky clear below 12,000 feet AGL
Weather: no significant weather observed at this time

METAR text: YSCB 221730Z AUTO 00000KT 9999 // NCD 22/19 Q1013 RF00.0/002.0
Conditions at: YSCB (CANBERRA (CIV/MI, AU) observed 1730 UTC 22 January 2019
Temperature: 22.0°C (72°F)
Dewpoint: 19.0°C (66°F) [RH = 83%]
Pressure (altimeter): 29.91 inches Hg (1013.0 mb)
Winds: calm
Visibility: 6 or more miles (10+ km)
Ceiling: at least 12,000 feet AGL
Clouds: sky clear below 12,000 feet AGL
Weather: no significant weather observed at this time

METAR text: YSCB 221700Z AUTO 08004KT 9999 // NCD 21/18 Q1012 RF00.0/002.0 WX2:DL-NE DISTANT LIGHTNING TO NE
Conditions at: YSCB (CANBERRA (CIV/MI, AU) observed 1700 UTC 22 January 2019
Temperature: 21.0°C (70°F)
Dewpoint: 18.0°C (64°F) [RH = 83%]
Pressure (altimeter): 29.88 inches Hg (1012.0 mb)
Winds: from the E (80 degrees) at 5 MPH (4 knots; 2.1 m/s)
Visibility: 6 or more miles (10+ km)
Ceiling: at least 12,000 feet AGL
Clouds: sky clear below 12,000 feet AGL
Weather: no significant weather observed at this time

METAR text: YSCB 221630Z AUTO 17004KT 9999 // NCD 22/19 Q1012 RF00.0/002.0
Conditions at: YSCB (CANBERRA (CIV/MI, AU) observed 1630 UTC 22 January 2019
Temperature: 22.0°C (72°F)
Dewpoint: 19.0°C (66°F) [RH = 83%]
Pressure (altimeter): 29.88 inches Hg (1012.0 mb)
Winds: from the S (170 degrees) at 5 MPH (4 knots; 2.1 m/s)
Visibility: 6 or more miles (10+ km)
Ceiling: at least 12,000 feet AGL
Clouds: sky clear below 12,000 feet AGL
Weather: no significant weather observed at this time

METAR text: YSCB 221600Z AUTO 13007KT 9999 // NCD 22/19 Q1013 RF00.0/002.0
Conditions at: YSCB (CANBERRA (CIV/MI, AU) observed 1600 UTC 22 January 2019
Temperature: 22.0°C (72°F)
Dewpoint: 19.0°C (66°F) [RH = 83%]
Pressure (altimeter): 29.91 inches Hg (1013.0 mb)
Winds: from the SE (130 degrees) at 8 MPH (7 knots; 3.6 m/s)
Visibility: 6 or more miles (10+ km)
Ceiling: at least 12,000 feet AGL
Clouds: sky clear below 12,000 feet AGL
Weather: no significant weather observed at this time

METAR text: YSCB 221530Z AUTO 13006KT 9999 // NCD 22/20 Q1013 RF00.0/002.0 WX2:DL-NE DISTANT LIGHTNING TO NE
Conditions at: YSCB (CANBERRA (CIV/MI, AU) observed 1530 UTC 22 January 2019
Temperature: 22.0°C (72°F)
Dewpoint: 20.0°C (68°F) [RH = 88%]
Pressure (altimeter): 29.91 inches Hg (1013.0 mb)
Winds: from the SE (130 degrees) at 7 MPH (6 knots; 3.1 m/s)
Visibility: 6 or more miles (10+ km)
Ceiling: at least 12,000 feet AGL
Clouds: sky clear below 12,000 feet AGL
Weather: no significant weather observed at this time

METAR text: YSCB 221500Z AUTO 10005KT 9999 // SCT105 22/19 Q1014 RF00.0/002.0 WX2:DL-N/DL-NE DISTANT LIGHTNING TO N, NE
Conditions at: YSCB (CANBERRA (CIV/MI, AU) observed 1500 UTC 22 January 2019
Temperature: 22.0°C (72°F)
Dewpoint: 19.0°C (66°F) [RH = 83%]
Pressure (altimeter): 29.94 inches Hg (1014.0 mb)
Winds: from the E (100 degrees) at 6 MPH (5 knots; 2.6 m/s)
Visibility: 6 or more miles (10+ km)
Ceiling: at least 12,000 feet AGL
Clouds: scattered clouds at 10500 feet AGL
Weather: no significant weather observed at this time

METAR text: YSCB 221430Z AUTO 27005KT 9999 // OVC115 23/20 Q1014 RF00.0/002.0 WX2:DL-N/DL-NW DISTANT LIGHTNING TO N, NW
Conditions at: YSCB (CANBERRA (CIV/MI, AU) observed 1430 UTC 22 January 2019
Temperature: 23.0°C (73°F)
Dewpoint: 20.0°C (68°F) [RH = 83%]
Pressure (altimeter): 29.94 inches Hg (1014.0 mb)
Winds: from the W (270 degrees) at 6 MPH (5 knots; 2.6 m/s)
Visibility: 6 or more miles (10+ km)
Ceiling: 11500 feet AGL
Clouds: overcast cloud deck at 11500 feet AGL
Weather: no significant weather observed at this time

METAR text: YSCB 221400Z AUTO 00000KT 9999 // SCT115 22/19 Q1013
Conditions at: YSCB (CANBERRA (CIV/MI, AU) observed 1400 UTC 22 January 2019
Temperature: 22.0°C (72°F)
Dewpoint: 19.0°C (66°F) [RH = 83%]
Pressure (altimeter): 29.91 inches Hg (1013.0 mb)
Winds: calm
Visibility: 6 or more miles (10+ km)
Ceiling: at least 12,000 feet AGL
Clouds: scattered clouds at 11500 feet AGL
Weather: no significant weather observed at this time

METAR text: YSCB 221330Z AUTO 15005KT 100V200 9999 VCTS SCT110 23/18 Q1013 RETS
Conditions at: YSCB (CANBERRA (CIV/MI, AU) observed 1330 UTC 22 January 2019
Temperature: 23.0°C (73°F)
Dewpoint: 18.0°C (64°F) [RH = 73%]
Pressure (altimeter): 29.91 inches Hg (1013.0 mb)
Winds: from the SSE (150 degrees) at 6 MPH (5 knots; 2.6 m/s)
Visibility: 6 or more miles (10+ km)
Ceiling: at least 12,000 feet AGL
Clouds: scattered clouds at 11000 feet AGL
Weather: VCTS  (thunderstorm in vicinity)

METAR text: YSCB 221321Z AUTO 12005KT 090V150 9999 VCTS SCT110 23/19 Q1013 RETS
Conditions at: YSCB (CANBERRA (CIV/MI, AU) observed 1321 UTC 22 January 2019
Temperature: 23.0°C (73°F)
Dewpoint: 19.0°C (66°F) [RH = 78%]
Pressure (altimeter): 29.91 inches Hg (1013.0 mb)
Winds: from the ESE (120 degrees) at 6 MPH (5 knots; 2.6 m/s)
Visibility: 6 or more miles (10+ km)
Ceiling: at least 12,000 feet AGL
Clouds: scattered clouds at 11000 feet AGL
Weather: VCTS  (thunderstorm in vicinity)

METAR text: YSCB 221300Z AUTO 21004KT 170V310 9999 -TSRA OVC110 24/20 Q1014
Conditions at: YSCB (CANBERRA (CIV/MI, AU) observed 1300 UTC 22 January 2019
Temperature: 24.0°C (75°F)
Dewpoint: 20.0°C (68°F) [RH = 78%]
Pressure (altimeter): 29.94 inches Hg (1014.0 mb)
Winds: from the SSW (210 degrees) at 5 MPH (4 knots; 2.1 m/s)
Visibility: 6 or more miles (10+ km)
Ceiling: 11000 feet AGL
Clouds: overcast cloud deck at 11000 feet AGL
Weather: -TSRA  (light rain associated with thunderstorm(s))

METAR text: YSCB 221242Z AUTO 20006KT 9999 TS BKN110 23/20 Q1013 RF00/0/002/0 WX2/TS
Conditions at: YSCB (CANBERRA (CIV/MI, AU) observed 1242 UTC 22 January 2019
Temperature: 23.0°C (73°F)
Dewpoint: 20.0°C (68°F) [RH = 83%]
Pressure (altimeter): 29.91 inches Hg (1013.0 mb)
Winds: from the SSW (200 degrees) at 7 MPH (6 knots; 3.1 m/s)
Visibility: 6 or more miles (10+ km)
Ceiling: 11000 feet AGL
Clouds: broken clouds at 11000 feet AGL
Weather: TS TS  (thunderstorm, thunderstorm)

METAR text: YSCB 221230Z AUTO 35003KT 9999 // SCT120 23/20 Q1013 RF00.0/002.0
Conditions at: YSCB (CANBERRA (CIV/MI, AU) observed 1230 UTC 22 January 2019
Temperature: 23.0°C (73°F)
Dewpoint: 20.0°C (68°F) [RH = 83%]
Pressure (altimeter): 29.91 inches Hg (1013.0 mb)
Winds: from the N (350 degrees) at 3 MPH (3 knots; 1.5 m/s)
Visibility: 6 or more miles (10+ km)
Ceiling: at least 12,000 feet AGL
Clouds: scattered clouds at 12000 feet AGL
Weather: no significant weather observed at this time

METAR text: YSCB 221200Z AUTO 31004KT 150V320 9999 // NCD 24/19 Q1014 RERA
Conditions at: YSCB (CANBERRA (CIV/MI, AU) observed 1200 UTC 22 January 2019
Temperature: 24.0°C (75°F)
Dewpoint: 19.0°C (66°F) [RH = 74%]
Pressure (altimeter): 29.94 inches Hg (1014.0 mb)
Winds: from the NW (310 degrees) at 5 MPH (4 knots; 2.1 m/s)
Visibility: 6 or more miles (10+ km)
Ceiling: at least 12,000 feet AGL
Clouds: sky clear below 12,000 feet AGL
Weather: no significant weather observed at this time

METAR text: YSCB 221130Z AUTO 09012KT 9999 VCTS SHRA SCT026 SCT062 23/18 Q1014 RETS
Conditions at: YSCB (CANBERRA (CIV/MI, AU) observed 1130 UTC 22 January 2019
Temperature: 23.0°C (73°F)
Dewpoint: 18.0°C (64°F) [RH = 73%]
Pressure (altimeter): 29.94 inches Hg (1014.0 mb)
Winds: from the E (90 degrees) at 14 MPH (12 knots; 6.2 m/s)
Visibility: 6 or more miles (10+ km)
Ceiling: at least 12,000 feet AGL
Clouds: scattered clouds at 2600 feet AGL
scattered clouds at 6200 feet AGL
Weather: VCTS SHRA  (thunderstorm in vicinity, rain showers)

METAR text: YSCB 221124Z AUTO 08013KT 9999 VCTS SHRA SCT026 BKN062 BKN100 24/18 Q1014 RETS
Conditions at: YSCB (CANBERRA (CIV/MI, AU) observed 1124 UTC 22 January 2019
Temperature: 24.0°C (75°F)
Dewpoint: 18.0°C (64°F) [RH = 69%]
Pressure (altimeter): 29.94 inches Hg (1014.0 mb)
Winds: from the E (80 degrees) at 15 MPH (13 knots; 6.7 m/s)
Visibility: 6 or more miles (10+ km)
Ceiling: 6200 feet AGL
Clouds: scattered clouds at 2600 feet AGL
broken clouds at 6200 feet AGL
broken clouds at 10000 feet AGL
Weather: VCTS SHRA  (thunderstorm in vicinity, rain showers)

METAR text: YSCB 221118Z AUTO 05012KT 9999 TSRA SCT016 SCT036 BKN054 24/18 Q1014
Conditions at: YSCB (CANBERRA (CIV/MI, AU) observed 1118 UTC 22 January 2019
Temperature: 24.0°C (75°F)
Dewpoint: 18.0°C (64°F) [RH = 69%]
Pressure (altimeter): 29.94 inches Hg (1014.0 mb)
Winds: from the NE (50 degrees) at 14 MPH (12 knots; 6.2 m/s)
Visibility: 6 or more miles (10+ km)
Ceiling: 5400 feet AGL
Clouds: scattered clouds at 1600 feet AGL
scattered clouds at 3600 feet AGL
broken clouds at 5400 feet AGL
Weather: TSRA  (rain associated with thunderstorm(s))

METAR text: YSCB 221101Z AUTO 01005KT 230V040 6000 +TSRA SCT014 SCT031 BKN100 27/16 Q1014
Conditions at: YSCB (CANBERRA (CIV/MI, AU) observed 1101 UTC 22 January 2019
Temperature: 27.0°C (81°F)
Dewpoint: 16.0°C (61°F) [RH = 51%]
Pressure (altimeter): 29.94 inches Hg (1014.0 mb)
Winds: from the N (10 degrees) at 6 MPH (5 knots; 2.6 m/s)
Visibility: 4 miles ( 6 km)
Ceiling: 10000 feet AGL
Clouds: scattered clouds at 1400 feet AGL
scattered clouds at 3100 feet AGL
broken clouds at 10000 feet AGL
Weather: +TSRA  (heavy rain associated with thunderstorm(s))

METAR text: YSCB 221036Z AUTO 13005KT 9999 TS SCT125 28/15 Q1013 RF00/0/000/0 WX2/TS
Conditions at: YSCB (CANBERRA (CIV/MI, AU) observed 1036 UTC 22 January 2019
Temperature: 28.0°C (82°F)
Dewpoint: 15.0°C (59°F) [RH = 45%]
Pressure (altimeter): 29.91 inches Hg (1013.0 mb)
Winds: from the SE (130 degrees) at 6 MPH (5 knots; 2.6 m/s)
Visibility: 6 or more miles (10+ km)
Ceiling: at least 12,000 feet AGL
Clouds: scattered clouds at 12500 feet AGL
Weather: TS TS  (thunderstorm, thunderstorm)

METAR text: YSCB 221000Z AUTO 16007KT 9999 // SCT125 29/14 Q1013 RF00.0/000.0 WX2:DL-E/DL-SE DISTANT LIGHTNING TO E, SE
Conditions at: YSCB (CANBERRA (CIV/MI, AU) observed 1000 UTC 22 January 2019
Temperature: 29.0°C (84°F)
Dewpoint: 14.0°C (57°F) [RH = 40%]
Pressure (altimeter): 29.91 inches Hg (1013.0 mb)
Winds: from the SSE (160 degrees) at 8 MPH (7 knots; 3.6 m/s)
Visibility: 6 or more miles (10+ km)
Ceiling: at least 12,000 feet AGL
Clouds: scattered clouds at 12500 feet AGL
Weather: no significant weather observed at this time

METAR text: YSCB 220930Z AUTO 21008KT 9999 // SCT100 30/13 Q1013 RF00.0/000.0 WX2:DL-E/DL-SE DISTANT LIGHTNING TO E, SE
Conditions at: YSCB (CANBERRA (CIV/MI, AU) observed 0930 UTC 22 January 2019
Temperature: 30.0°C (86°F)
Dewpoint: 13.0°C (55°F) [RH = 35%]
Pressure (altimeter): 29.91 inches Hg (1013.0 mb)
Winds: from the SSW (210 degrees) at 9 MPH (8 knots; 4.1 m/s)
Visibility: 6 or more miles (10+ km)
Ceiling: at least 12,000 feet AGL
Clouds: scattered clouds at 10000 feet AGL
Weather: no significant weather observed at this time

METAR text: YSCB 220900Z AUTO 25015KT 9999 VCTS SCT100 31/13 Q1013 RF00.0/000.0 WX2:VCTS-W USE TAF FOR ARRIVALS
Conditions at: YSCB (CANBERRA (CIV/MI, AU) observed 0900 UTC 22 January 2019
Temperature: 31.0°C (88°F)
Dewpoint: 13.0°C (55°F) [RH = 33%]
Pressure (altimeter): 29.91 inches Hg (1013.0 mb)
Winds: from the WSW (250 degrees) at 17 MPH (15 knots; 7.7 m/s)
Visibility: 6 or more miles (10+ km)
Ceiling: at least 12,000 feet AGL
Clouds: scattered clouds at 10000 feet AGL
Weather: VCTS VCTS VA  (thunderstorm in vicinity, thunderstorm in vicinity, volcanic ash)

METAR text: YSCB 220848Z AUTO 26015KT 9999 // SCT100 33/13 Q1013 RF00/0/000/0 WX2/DL-SE/DL-S/DL-W DISTANT LIGHTNING TO SE/ S/ W TEMPO 0848/0900 VRB20G35KT 2000 TSRA SCT020 SCT060CB RMK USE TAF FOR ARRIVALS AFTER 0900Z
Conditions at: YSCB (CANBERRA (CIV/MI, AU) observed 0848 UTC 22 January 2019
Temperature: 33.0°C (91°F)
Dewpoint: 13.0°C (55°F) [RH = 30%]
Pressure (altimeter): 29.91 inches Hg (1013.0 mb)
Winds: from the W (260 degrees) at 17 MPH (15 knots; 7.7 m/s)
Visibility: 6 or more miles (10+ km)
Ceiling: at least 12,000 feet AGL
Clouds: scattered clouds at 10000 feet AGL
Weather: no significant weather observed at this time

METAR text: YSCB 220830Z AUTO 31010KT 9999 // NCD 34/13 Q1012 RMK RF00.0/000.0 WX2:DL-SE/DL-S/DL-SW/DL-W/DL-NW DISTANT LIGHTNING TO SE, S, SW, W, NW TEMPO 0830/0900 VRB20G35KT 2000 TSRA SCT020 SCT060CB RMK USE TAF FOR ARRIVALS AFTER 0900Z
Conditions at: YSCB (CANBERRA (CIV/MI, AU) observed 0830 UTC 22 January 2019
Temperature: 34.0°C (93°F)
Dewpoint: 13.0°C (55°F) [RH = 28%]
Pressure (altimeter): 29.88 inches Hg (1012.0 mb)
Winds: from the NW (310 degrees) at 12 MPH (10 knots; 5.1 m/s)
Visibility: 6 or more miles (10+ km)
Ceiling: at least 12,000 feet AGL
Clouds: sky clear below 12,000 feet AGL
Weather: no significant weather observed at this time

METAR text: YSCB 220800Z AUTO 32010KT 9999 // NCD 34/12 Q1012 RMK RF00.0/000.0 WX2:DL-SE/DL-S/DL-SW/DL-W/DL-NW DISTANT LIGHTNING TO SE, S, SW, W, NW TEMPO 0830/0900 VRB20G35KT 2000 TSRA SCT020 SCT060CB RMK USE TAF FOR ARRIVALS AFTER 0900Z
Conditions at: YSCB (CANBERRA (CIV/MI, AU) observed 0800 UTC 22 January 2019
Temperature: 34.0°C (93°F)
Dewpoint: 12.0°C (54°F) [RH = 26%]
Pressure (altimeter): 29.88 inches Hg (1012.0 mb)
Winds: from the NW (320 degrees) at 12 MPH (10 knots; 5.1 m/s)
Visibility: 6 or more miles (10+ km)
Ceiling: at least 12,000 feet AGL
Clouds: sky clear below 12,000 feet AGL
Weather: no significant weather observed at this time

METAR text: YSCB 220730Z AUTO 29010KT 9999 // NCD 36/11 Q1011 RMK RF00.0/000.0 WX2:DL-SE/DL-S/DL-SW/DL-W/DL-NW DISTANT LIGHTNING TO SE, S, SW, W, NW TEMPO 0830/0900 VRB20G35KT 2000 TSRA SCT020 SCT060CB RMK USE TAF FOR ARRIVALS AFTER 0900Z
Conditions at: YSCB (CANBERRA (CIV/MI, AU) observed 0730 UTC 22 January 2019
Temperature: 36.0°C (97°F)
Dewpoint: 11.0°C (52°F) [RH = 22%]
Pressure (altimeter): 29.85 inches Hg (1011.0 mb)
Winds: from the WNW (290 degrees) at 12 MPH (10 knots; 5.1 m/s)
Visibility: 6 or more miles (10+ km)
Ceiling: at least 12,000 feet AGL
Clouds: sky clear below 12,000 feet AGL
Weather: no significant weather observed at this time

METAR text: YSCB 220700Z AUTO 33013KT 9999 // NCD 37/12 Q1011 RMK RF00.0/000.0 WX2:DL-S/DL-W DISTANT LIGHTNING TO S, W TEMPO 0800/0900 VRB20G35KT 2000 TSRA SCT020 SCT060CB RMK USE TAF FOR ARRIVALS AFTER 0900Z
Conditions at: YSCB (CANBERRA (CIV/MI, AU) observed 0700 UTC 22 January 2019
Temperature: 37.0°C (99°F)
Dewpoint: 12.0°C (54°F) [RH = 22%]
Pressure (altimeter): 29.85 inches Hg (1011.0 mb)
Winds: from the NNW (330 degrees) at 15 MPH (13 knots; 6.7 m/s)
Visibility: 6 or more miles (10+ km)
Ceiling: at least 12,000 feet AGL
Clouds: sky clear below 12,000 feet AGL
Weather: no significant weather observed at this time

METAR text: YSCB 220630Z AUTO 34013KT 9999 // NCD 36/11 Q1012 RMK RF00.0/000.0 TEMPO 0715/0900 VRB20G35KT 2000 TSRA SCT020 SCT060CB RMK USE TAF FOR ARRIVALS AFTER 0900Z
Conditions at: YSCB (CANBERRA (CIV/MI, AU) observed 0630 UTC 22 January 2019
Temperature: 36.0°C (97°F)
Dewpoint: 11.0°C (52°F) [RH = 22%]
Pressure (altimeter): 29.88 inches Hg (1012.0 mb)
Winds: from the NNW (340 degrees) at 15 MPH (13 knots; 6.7 m/s)
Visibility: 6 or more miles (10+ km)
Ceiling: at least 12,000 feet AGL
Clouds: sky clear below 12,000 feet AGL
Weather: no significant weather observed at this time

METAR text: YSCB 220600Z AUTO 26009KT 9999 // NCD 37/11 Q1012 TEMPO 0700/0900 VRB20G35KT 2000 TSRA SCT020 SCT060CB
Conditions at: YSCB (CANBERRA (CIV/MI, AU) observed 0600 UTC 22 January 2019
Temperature: 37.0°C (99°F)
Dewpoint: 11.0°C (52°F) [RH = 21%]
Pressure (altimeter): 29.88 inches Hg (1012.0 mb)
Winds: from the W (260 degrees) at 10 MPH (9 knots; 4.6 m/s)
Visibility: 6 or more miles (10+ km)
Ceiling: at least 12,000 feet AGL
Clouds: sky clear below 12,000 feet AGL
Weather: no significant weather observed at this time

METAR text: YSCB 220530Z AUTO 28011KT 9999 // NCD 38/09 Q1012 RMK RF00.0/000.0 TEMPO 0630/0830 VRB20G35KT 2000 TSRA SCT020 SCT060CB
Conditions at: YSCB (CANBERRA (CIV/MI, AU) observed 0530 UTC 22 January 2019
Temperature: 38.0°C (100°F)
Dewpoint: 9.0°C (48°F) [RH = 17%]
Pressure (altimeter): 29.88 inches Hg (1012.0 mb)
Winds: from the W (280 degrees) at 13 MPH (11 knots; 5.7 m/s)
Visibility: 6 or more miles (10+ km)
Ceiling: at least 12,000 feet AGL
Clouds: sky clear below 12,000 feet AGL
Weather: no significant weather observed at this time

METAR text: YSCB 220500Z AUTO 28013KT 270V340 9999 // NCD 37/12 Q1012 TEMPO 0630/0800 VRB20G35KT 2000 TSRA SCT020 SCT060CB
Conditions at: YSCB (CANBERRA (CIV/MI, AU) observed 0500 UTC 22 January 2019
Temperature: 37.0°C (99°F)
Dewpoint: 12.0°C (54°F) [RH = 22%]
Pressure (altimeter): 29.88 inches Hg (1012.0 mb)
Winds: from the W (280 degrees) at 15 MPH (13 knots; 6.7 m/s)
Visibility: 6 or more miles (10+ km)
Ceiling: at least 12,000 feet AGL
Clouds: sky clear below 12,000 feet AGL
Weather: no significant weather observed at this time

METAR text: YSCB 220430Z AUTO 28012KT 9999 // SCT091 36/12 Q1013 RMK RF00.0/000.0 TEMPO 0530/0730 VRB20G35KT 2000 TSRA SCT020 SCT060CB
Conditions at: YSCB (CANBERRA (CIV/MI, AU) observed 0430 UTC 22 January 2019
Temperature: 36.0°C (97°F)
Dewpoint: 12.0°C (54°F) [RH = 24%]
Pressure (altimeter): 29.91 inches Hg (1013.0 mb)
Winds: from the W (280 degrees) at 14 MPH (12 knots; 6.2 m/s)
Visibility: 6 or more miles (10+ km)
Ceiling: at least 12,000 feet AGL
Clouds: scattered clouds at 9100 feet AGL
Weather: no significant weather observed at this time

METAR text: YSCB 220400Z AUTO 31013KT 9999 // NCD 37/13 Q1013 RMK RF00.0/000.0 TEMPO 0530/0700 VRB20G35KT 2000 TSRA SCT020 SCT060CB
Conditions at: YSCB (CANBERRA (CIV/MI, AU) observed 0400 UTC 22 January 2019
Temperature: 37.0°C (99°F)
Dewpoint: 13.0°C (55°F) [RH = 24%]
Pressure (altimeter): 29.91 inches Hg (1013.0 mb)
Winds: from the NW (310 degrees) at 15 MPH (13 knots; 6.7 m/s)
Visibility: 6 or more miles (10+ km)
Ceiling: at least 12,000 feet AGL
Clouds: sky clear below 12,000 feet AGL
Weather: no significant weather observed at this time

Forecast for: AMD
Text: TAF AMD YSCB 231050Z 2311/2412 11008KT CAVOK
Forecast period: 1100 UTC 23 January 2019 to 1200 UTC 24 January 2019
Forecast type: FROM: standard forecast or significant change
Winds: from the ESE (110 degrees) at 9 MPH (8 knots; 4.1 m/s)
Visibility: 6 or more miles 10+ km)
Ceiling: unknown
Clouds: missing
Weather: NSW  (no significant weather)
Text: BECMG 2311/2312 12006KT 9999 BKN018
Forecast period: 1100 to 2200 UTC 23 January 2019
Forecast type: BECOMING: Conditions expected to become as follows by 1200 UTC 23 January 2019
Winds: from the ESE (120 degrees) at 7 MPH (6 knots; 3.1 m/s)
Visibility: 6 or more miles 10+ km)
Ceiling: 1800 feet AGL
Clouds: broken clouds at 1800 feet AGL
Weather: NSW  (no significant weather)
Text: FM232200 09006KT 9999 SCT025
Forecast period: 2200 UTC 23 January 2019 to 0000 UTC 24 January 2019
Forecast type: FROM: standard forecast or significant change
Winds: from the E (90 degrees) at 7 MPH (6 knots; 3.1 m/s)
Visibility: 6 or more miles 10+ km)
Ceiling: at least 12,000 feet AGL
Clouds: scattered clouds at 2500 feet AGL
Weather: no significant weather forecast for this period
Text: FM240000 07012KT CAVOK
Forecast period: 0000 to 1100 UTC 24 January 2019
Forecast type: FROM: standard forecast or significant change
Winds: from the ENE (70 degrees) at 14 MPH (12 knots; 6.2 m/s)
Visibility: 6 or more miles 10+ km)
Ceiling: unknown
Clouds: missing
Weather: NSW  (no significant weather)
Text: FM241100 08006KT 9999 FEW025
Forecast period: 1100 to 1200 UTC 24 January 2019
Forecast type: FROM: standard forecast or significant change
Winds: from the E (80 degrees) at 7 MPH (6 knots; 3.1 m/s)
Visibility: 6 or more miles 10+ km)
Ceiling: at least 12,000 feet AGL
Clouds: few clouds at 2500 feet AGL
Weather: no significant weather forecast for this period